createdAt,value
2022-10-05T00:00:43.324Z,1009.54
2022-10-05T00:01:43.367Z,1009.56
2022-10-05T00:02:43.300Z,1009.56
2022-10-05T00:03:43.301Z,1009.51
2022-10-05T00:04:43.616Z,1009.50
2022-10-05T00:05:43.270Z,1009.42
2022-10-05T00:06:43.508Z,1009.42
2022-10-05T00:07:43.232Z,1009.42
2022-10-05T00:08:43.244Z,1009.45
2022-10-05T00:09:43.184Z,1009.45
2022-10-05T00:10:43.214Z,1009.51
2022-10-05T00:11:43.170Z,1009.53
2022-10-05T00:12:43.197Z,1009.49
2022-10-05T00:13:43.173Z,1009.49
2022-10-05T00:14:43.141Z,1009.49
2022-10-05T00:15:43.134Z,1009.51
2022-10-05T00:16:43.204Z,1009.53
2022-10-05T00:17:43.116Z,1009.51
2022-10-05T00:18:43.108Z,1009.49
2022-10-05T00:19:43.104Z,1009.51
2022-10-05T00:20:43.101Z,1009.48
2022-10-05T00:21:43.058Z,1009.45
2022-10-05T00:22:43.050Z,1009.44
2022-10-05T00:23:43.069Z,1009.40
2022-10-05T00:24:43.076Z,1009.38
2022-10-05T00:25:43.709Z,1009.39
2022-10-05T00:26:43.114Z,1009.40
2022-10-05T00:27:43.007Z,1009.35
2022-10-05T00:28:43.000Z,1009.35
2022-10-05T00:29:43.015Z,1009.32
2022-10-05T00:30:43.008Z,1009.30
2022-10-05T00:31:43.042Z,1009.29
2022-10-05T00:32:42.964Z,1009.28
2022-10-05T00:33:42.975Z,1009.33
2022-10-05T00:34:42.962Z,1009.32
2022-10-05T00:35:42.944Z,1009.30
2022-10-05T00:36:43.358Z,1009.31
2022-10-05T00:37:42.905Z,1009.26
2022-10-05T00:38:42.895Z,1009.25
2022-10-05T00:39:42.906Z,1009.26
2022-10-05T00:40:42.946Z,1009.29
2022-10-05T00:41:42.878Z,1009.28
2022-10-05T00:42:42.879Z,1009.29
2022-10-05T00:43:42.855Z,1009.30
2022-10-05T00:44:42.862Z,1009.32
2022-10-05T00:45:42.920Z,1009.37
2022-10-05T00:46:43.077Z,1009.30
2022-10-05T00:47:42.806Z,1009.30
2022-10-05T00:48:42.801Z,1009.35
2022-10-05T00:49:42.772Z,1009.36
2022-10-05T00:50:42.758Z,1009.37
2022-10-05T00:51:42.734Z,1009.32
2022-10-05T00:52:42.720Z,1009.29
2022-10-05T00:53:42.706Z,1009.27
2022-10-05T00:54:42.693Z,1009.28
2022-10-05T00:55:42.685Z,1009.27
2022-10-05T00:56:42.809Z,1009.29
2022-10-05T00:57:42.661Z,1009.29
2022-10-05T00:58:42.705Z,1009.27
2022-10-05T00:59:42.693Z,1009.29
2022-10-05T01:00:42.656Z,1009.28
2022-10-05T01:01:42.660Z,1009.26
2022-10-05T01:02:42.637Z,1009.21
2022-10-05T01:03:42.596Z,1009.20
2022-10-05T01:04:42.655Z,1009.21
2022-10-05T01:05:42.831Z,1009.25
2022-10-05T01:06:42.803Z,1009.24
2022-10-05T01:07:42.561Z,1009.24
2022-10-05T01:08:42.537Z,1009.25
2022-10-05T01:09:42.605Z,1009.23
2022-10-05T01:10:42.518Z,1009.24
2022-10-05T01:11:42.567Z,1009.18
2022-10-05T01:12:42.572Z,1009.13
2022-10-05T01:13:42.488Z,1009.12
2022-10-05T01:14:42.480Z,1009.13
2022-10-05T01:15:42.451Z,1009.11
2022-10-05T01:16:42.519Z,1009.10
2022-10-05T01:17:42.429Z,1009.10
2022-10-05T01:18:42.433Z,1009.09
2022-10-05T01:19:42.420Z,1009.10
2022-10-05T01:20:42.422Z,1009.05
2022-10-05T01:21:42.382Z,1009.07
2022-10-05T01:22:42.388Z,1008.99
2022-10-05T01:23:42.379Z,1008.99
2022-10-05T01:24:42.366Z,1008.98
2022-10-05T01:25:42.367Z,1009.04
2022-10-05T01:26:42.337Z,1008.97
2022-10-05T01:27:42.329Z,1008.93
2022-10-05T01:28:42.315Z,1008.90
2022-10-05T01:29:42.347Z,1008.94
2022-10-05T01:30:42.318Z,1008.97
2022-10-05T01:31:42.472Z,1008.99
2022-10-05T01:32:42.268Z,1008.98
2022-10-05T01:33:42.276Z,1008.96
2022-10-05T01:34:42.251Z,1008.91
2022-10-05T01:35:42.238Z,1008.93
2022-10-05T01:36:42.271Z,1008.94
2022-10-05T01:37:42.221Z,1008.92
2022-10-05T01:38:42.215Z,1008.90
2022-10-05T01:39:42.202Z,1008.86
2022-10-05T01:40:42.194Z,1008.89
2022-10-05T01:41:42.168Z,1008.88
2022-10-05T01:42:42.190Z,1008.94
2022-10-05T01:43:42.160Z,1008.90
2022-10-05T01:44:42.154Z,1008.84
2022-10-05T01:45:42.173Z,1008.82
2022-10-05T01:46:42.129Z,1008.85
2022-10-05T01:47:42.111Z,1008.80
2022-10-05T01:48:42.112Z,1008.82
2022-10-05T01:49:42.079Z,1008.77
2022-10-05T01:50:42.089Z,1008.73
2022-10-05T01:51:42.075Z,1008.69
2022-10-05T01:52:42.061Z,1008.73
2022-10-05T01:53:42.048Z,1008.68
2022-10-05T01:54:42.039Z,1008.70
2022-10-05T01:55:42.024Z,1008.68
2022-10-05T01:56:42.028Z,1008.70
2022-10-05T01:57:41.997Z,1008.68
2022-10-05T01:58:41.998Z,1008.75
2022-10-05T01:59:41.988Z,1008.73
2022-10-05T02:00:42.015Z,1008.73
2022-10-05T02:01:41.952Z,1008.73
2022-10-05T02:02:41.993Z,1008.69
2022-10-05T02:03:42.054Z,1008.76
2022-10-05T02:05:01.447Z,1008.76
2022-10-05T02:05:42.898Z,1008.81
2022-10-05T02:06:41.898Z,1008.72
2022-10-05T02:07:42.312Z,1008.73
2022-10-05T02:08:41.889Z,1008.73
2022-10-05T02:09:41.880Z,1008.72
2022-10-05T02:10:41.891Z,1008.69
2022-10-05T02:11:41.858Z,1008.67
2022-10-05T02:12:41.904Z,1008.67
2022-10-05T02:13:41.829Z,1008.66
2022-10-05T02:14:41.836Z,1008.71
2022-10-05T02:15:41.861Z,1008.77
2022-10-05T02:16:41.793Z,1008.78
2022-10-05T02:17:41.875Z,1008.81
2022-10-05T02:18:42.542Z,1008.73
2022-10-05T02:19:41.752Z,1008.70
2022-10-05T02:20:42.395Z,1008.68
2022-10-05T02:21:41.765Z,1008.64
2022-10-05T02:22:41.729Z,1008.65
2022-10-05T02:23:41.710Z,1008.63
2022-10-05T02:24:41.711Z,1008.59
2022-10-05T02:25:41.743Z,1008.56
2022-10-05T02:26:41.699Z,1008.58
2022-10-05T02:27:41.675Z,1008.60
2022-10-05T02:28:41.672Z,1008.56
2022-10-05T02:29:41.688Z,1008.54
2022-10-05T02:30:41.699Z,1008.55
2022-10-05T02:31:41.666Z,1008.50
2022-10-05T02:32:41.625Z,1008.48
2022-10-05T02:33:41.608Z,1008.48
2022-10-05T02:34:41.633Z,1008.46
2022-10-05T02:35:41.609Z,1008.41
2022-10-05T02:36:41.580Z,1008.41
2022-10-05T02:37:41.560Z,1008.42
2022-10-05T02:38:41.623Z,1008.44
2022-10-05T02:39:41.558Z,1008.46
2022-10-05T02:40:41.671Z,1008.47
2022-10-05T02:41:41.560Z,1008.51
2022-10-05T02:42:41.506Z,1008.48
2022-10-05T02:43:41.481Z,1008.51
2022-10-05T02:44:41.495Z,1008.54
2022-10-05T02:45:41.524Z,1008.50
2022-10-05T02:46:41.450Z,1008.52
2022-10-05T02:47:41.442Z,1008.49
2022-10-05T02:48:41.437Z,1008.51
2022-10-05T02:49:41.439Z,1008.47
2022-10-05T02:50:41.425Z,1008.50
2022-10-05T02:51:41.452Z,1008.47
2022-10-05T02:52:41.554Z,1008.52
2022-10-05T02:53:41.398Z,1008.48
2022-10-05T02:54:41.385Z,1008.53
2022-10-05T02:55:41.372Z,1008.54
2022-10-05T02:56:41.361Z,1008.55
2022-10-05T02:57:41.335Z,1008.50
2022-10-05T02:58:41.334Z,1008.51
2022-10-05T02:59:41.332Z,1008.44
2022-10-05T03:00:41.375Z,1008.41
2022-10-05T03:01:41.427Z,1008.44
2022-10-05T03:02:41.298Z,1008.40
2022-10-05T03:03:41.285Z,1008.44
2022-10-05T03:04:41.297Z,1008.37
2022-10-05T03:05:41.251Z,1008.35
2022-10-05T03:06:41.253Z,1008.29
2022-10-05T03:07:41.274Z,1008.30
2022-10-05T03:08:41.244Z,1008.31
2022-10-05T03:09:41.499Z,1008.20
2022-10-05T03:10:41.232Z,1008.22
2022-10-05T03:12:34.607Z,1008.20
2022-10-05T03:13:34.953Z,1008.23
2022-10-05T03:14:34.968Z,1008.20
2022-10-05T03:15:34.807Z,1008.17
2022-10-05T03:16:34.626Z,1008.14
2022-10-05T03:17:35.041Z,1008.10
2022-10-05T03:18:35.250Z,1008.13
2022-10-05T03:19:34.269Z,1008.16
2022-10-05T03:20:34.911Z,1008.14
2022-10-05T03:21:34.356Z,1008.05
2022-10-05T03:22:35.053Z,1008.03
2022-10-05T03:23:34.882Z,1008.01
2022-10-05T03:24:34.581Z,1008.02
2022-10-05T03:25:34.562Z,1007.94
2022-10-05T03:26:34.951Z,1007.95
2022-10-05T03:27:34.193Z,1007.93
2022-10-05T03:28:34.179Z,1007.93
2022-10-05T03:29:34.950Z,1007.92
2022-10-05T03:30:35.013Z,1007.91
2022-10-05T03:31:34.473Z,1007.93
2022-10-05T03:32:34.695Z,1007.89
2022-10-05T03:33:35.065Z,1007.86
2022-10-05T03:34:35.062Z,1007.83
2022-10-05T03:35:34.272Z,1007.80
2022-10-05T03:36:34.269Z,1007.85
2022-10-05T03:37:35.087Z,1007.80
2022-10-05T03:38:34.346Z,1007.80
2022-10-05T03:39:35.280Z,1007.83
2022-10-05T03:40:33.920Z,1007.83
2022-10-05T03:41:33.831Z,1007.79
2022-10-05T03:42:33.903Z,1007.79
2022-10-05T03:43:33.979Z,1007.76
2022-10-05T03:44:34.233Z,1007.78
2022-10-05T03:45:33.916Z,1007.79
2022-10-05T03:46:33.716Z,1007.78
2022-10-05T03:47:33.666Z,1007.78
2022-10-05T03:48:33.622Z,1007.80
2022-10-05T03:49:33.659Z,1007.79
2022-10-05T03:50:33.614Z,1007.80
2022-10-05T03:51:33.621Z,1007.78
2022-10-05T03:52:33.611Z,1007.80
2022-10-05T03:53:33.668Z,1007.74
2022-10-05T03:54:33.617Z,1007.79
2022-10-05T03:55:33.863Z,1007.79
2022-10-05T03:56:33.687Z,1007.80
2022-10-05T03:57:33.593Z,1007.80
2022-10-05T03:58:33.543Z,1007.79
2022-10-05T03:59:33.525Z,1007.79
2022-10-05T04:00:33.502Z,1007.73
2022-10-05T04:01:33.525Z,1007.78
2022-10-05T04:02:33.539Z,1007.66
2022-10-05T04:03:33.561Z,1007.68
2022-10-05T04:04:33.662Z,1007.66
2022-10-05T04:05:33.571Z,1007.60
2022-10-05T04:06:33.734Z,1007.61
2022-10-05T04:07:33.463Z,1007.60
2022-10-05T04:08:33.733Z,1007.60
2022-10-05T04:09:33.492Z,1007.55
2022-10-05T04:10:33.452Z,1007.47
2022-10-05T04:11:33.627Z,1007.49
2022-10-05T04:12:33.358Z,1007.47
2022-10-05T04:13:33.329Z,1007.47
2022-10-05T04:14:33.343Z,1007.47
2022-10-05T04:15:33.410Z,1007.47
2022-10-05T04:16:33.697Z,1007.46
2022-10-05T04:17:33.673Z,1007.47
2022-10-05T04:18:33.391Z,1007.43
2022-10-05T04:19:33.464Z,1007.48
2022-10-05T04:20:33.414Z,1007.49
2022-10-05T04:21:33.466Z,1007.52
2022-10-05T04:22:33.392Z,1007.48
2022-10-05T04:23:33.291Z,1007.41
2022-10-05T04:24:33.253Z,1007.43
2022-10-05T04:25:33.263Z,1007.42
2022-10-05T04:26:33.289Z,1007.41
2022-10-05T04:27:33.231Z,1007.43
2022-10-05T04:28:33.353Z,1007.39
2022-10-05T04:29:33.579Z,1007.39
2022-10-05T04:30:33.663Z,1007.41
2022-10-05T04:31:33.429Z,1007.33
2022-10-05T04:32:33.177Z,1007.38
2022-10-05T04:33:33.171Z,1007.35
2022-10-05T04:34:33.350Z,1007.37
2022-10-05T04:35:33.378Z,1007.42
2022-10-05T04:36:33.789Z,1007.42
2022-10-05T04:37:33.227Z,1007.39
2022-10-05T04:38:33.214Z,1007.46
2022-10-05T04:39:33.155Z,1007.37
2022-10-05T04:40:33.247Z,1007.42
2022-10-05T04:41:33.182Z,1007.41
2022-10-05T04:42:33.327Z,1007.41
2022-10-05T04:43:33.135Z,1007.39
2022-10-05T04:44:33.034Z,1007.37
2022-10-05T04:45:33.026Z,1007.35
2022-10-05T04:46:33.101Z,1007.35
2022-10-05T04:47:32.998Z,1007.35
2022-10-05T04:48:33.039Z,1007.41
2022-10-05T04:49:32.986Z,1007.39
2022-10-05T04:50:32.976Z,1007.41
2022-10-05T04:51:32.960Z,1007.38
2022-10-05T04:52:32.946Z,1007.41
2022-10-05T04:53:33.021Z,1007.38
2022-10-05T04:54:32.982Z,1007.34
2022-10-05T04:55:32.916Z,1007.38
2022-10-05T04:56:32.938Z,1007.38
2022-10-05T04:57:32.914Z,1007.37
2022-10-05T04:58:32.920Z,1007.36
2022-10-05T04:59:34.212Z,1007.34
2022-10-05T05:00:33.056Z,1007.41
2022-10-05T05:01:32.910Z,1007.42
2022-10-05T05:02:32.884Z,1007.45
2022-10-05T05:03:32.875Z,1007.43
2022-10-05T05:04:32.837Z,1007.42
2022-10-05T05:05:32.862Z,1007.45
2022-10-05T05:06:32.844Z,1007.51
2022-10-05T05:07:32.845Z,1007.51
2022-10-05T05:08:32.786Z,1007.57
2022-10-05T05:09:32.777Z,1007.61
2022-10-05T05:10:32.790Z,1007.65
2022-10-05T05:11:33.617Z,1007.61
2022-10-05T05:12:32.771Z,1007.69
2022-10-05T05:13:32.844Z,1007.61
2022-10-05T05:14:32.738Z,1007.58
2022-10-05T05:15:33.006Z,1007.63
2022-10-05T05:16:32.803Z,1007.59
2022-10-05T05:17:32.676Z,1007.56
2022-10-05T05:18:32.677Z,1007.58
2022-10-05T05:19:32.654Z,1007.57
2022-10-05T05:20:32.679Z,1007.53
2022-10-05T05:21:32.629Z,1007.57
2022-10-05T05:22:32.622Z,1007.51
2022-10-05T05:23:32.618Z,1007.58
2022-10-05T05:24:32.624Z,1007.60
2022-10-05T05:25:32.615Z,1007.65
2022-10-05T05:26:36.756Z,1007.67
2022-10-05T05:27:33.655Z,1007.67
2022-10-05T05:28:32.635Z,1007.64
2022-10-05T05:29:32.554Z,1007.58
2022-10-05T05:30:32.571Z,1007.63
2022-10-05T05:31:32.560Z,1007.60
2022-10-05T05:32:32.583Z,1007.63
2022-10-05T05:33:32.546Z,1007.63
2022-10-05T05:34:32.514Z,1007.61
2022-10-05T05:35:32.481Z,1007.59
2022-10-05T05:36:32.548Z,1007.49
2022-10-05T05:37:32.529Z,1007.58
2022-10-05T05:38:32.443Z,1007.52
2022-10-05T05:39:32.466Z,1007.54
2022-10-05T05:40:32.446Z,1007.59
2022-10-05T05:41:32.453Z,1007.56
2022-10-05T05:42:32.440Z,1007.57
2022-10-05T05:43:32.428Z,1007.54
2022-10-05T05:44:35.322Z,1007.54
2022-10-05T05:45:33.377Z,1007.54
2022-10-05T05:46:58.422Z,1007.58
2022-10-05T05:47:33.415Z,1007.56
2022-10-05T05:48:32.346Z,1007.58
2022-10-05T05:49:32.326Z,1007.51
2022-10-05T05:50:32.352Z,1007.52
2022-10-05T05:51:32.338Z,1007.52
2022-10-05T05:52:32.284Z,1007.55
2022-10-05T05:53:32.281Z,1007.56
2022-10-05T05:54:32.265Z,1007.61
2022-10-05T05:55:32.288Z,1007.69
2022-10-05T05:56:32.264Z,1007.61
2022-10-05T05:57:32.300Z,1007.60
2022-10-05T05:58:32.252Z,1007.55
2022-10-05T05:59:32.247Z,1007.56
2022-10-05T06:00:32.208Z,1007.54
2022-10-05T06:01:33.902Z,1007.56
2022-10-05T06:02:32.309Z,1007.52
2022-10-05T06:03:32.228Z,1007.53
2022-10-05T06:04:32.159Z,1007.51
2022-10-05T06:05:32.143Z,1007.48
2022-10-05T06:06:32.130Z,1007.46
2022-10-05T06:07:32.171Z,1007.44
2022-10-05T06:08:32.146Z,1007.44
2022-10-05T06:09:32.115Z,1007.46
2022-10-05T06:10:32.131Z,1007.52
2022-10-05T06:11:32.141Z,1007.54
2022-10-05T06:12:32.119Z,1007.53
2022-10-05T06:13:32.109Z,1007.53
2022-10-05T06:14:32.077Z,1007.51
2022-10-05T06:15:32.384Z,1007.50
2022-10-05T06:16:32.137Z,1007.52
2022-10-05T06:17:32.042Z,1007.50
2022-10-05T06:18:32.033Z,1007.56
2022-10-05T06:19:32.014Z,1007.55
2022-10-05T06:20:32.277Z,1007.58
2022-10-05T06:21:32.032Z,1007.52
2022-10-05T06:22:33.131Z,1007.57
2022-10-05T06:23:32.226Z,1007.56
2022-10-05T06:24:32.161Z,1007.52
2022-10-05T06:25:31.961Z,1007.58
2022-10-05T06:26:32.022Z,1007.58
2022-10-05T06:27:32.009Z,1007.62
2022-10-05T06:28:32.102Z,1007.62
2022-10-05T06:29:31.925Z,1007.54
2022-10-05T06:30:31.935Z,1007.56
2022-10-05T06:31:32.080Z,1007.60
2022-10-05T06:32:32.051Z,1007.55
2022-10-05T06:33:31.890Z,1007.68
2022-10-05T06:34:32.924Z,1007.52
2022-10-05T06:35:32.613Z,1007.47
2022-10-05T06:36:31.863Z,1007.47
2022-10-05T06:37:32.207Z,1007.41
2022-10-05T06:38:31.903Z,1007.44
2022-10-05T06:39:31.902Z,1007.36
2022-10-05T06:40:31.883Z,1007.54
2022-10-05T06:41:31.808Z,1007.45
2022-10-05T06:42:31.866Z,1007.42
2022-10-05T06:43:31.885Z,1007.46
2022-10-05T06:44:31.777Z,1007.41
2022-10-05T06:45:32.006Z,1007.44
2022-10-05T06:46:31.815Z,1007.51
2022-10-05T06:47:31.877Z,1007.44
2022-10-05T06:48:31.783Z,1007.42
2022-10-05T06:49:31.785Z,1007.48
2022-10-05T06:50:31.723Z,1007.53
2022-10-05T06:51:31.740Z,1007.53
2022-10-05T06:52:31.686Z,1007.57
2022-10-05T06:53:31.648Z,1007.53
2022-10-05T06:54:31.784Z,1007.55
2022-10-05T06:55:31.900Z,1007.48
2022-10-05T06:56:32.134Z,1007.51
2022-10-05T06:57:31.703Z,1007.50
2022-10-05T06:58:31.658Z,1007.48
2022-10-05T06:59:32.133Z,1007.44
2022-10-05T07:00:32.558Z,1007.48
2022-10-05T07:01:33.511Z,1007.43
2022-10-05T07:02:33.435Z,1007.43
2022-10-05T07:03:33.310Z,1007.41
2022-10-05T07:04:36.943Z,1007.40
2022-10-05T07:05:32.710Z,1007.45
2022-10-05T07:06:32.469Z,1007.47
2022-10-05T07:07:31.830Z,1007.48
2022-10-05T07:08:31.586Z,1007.44
2022-10-05T07:09:31.600Z,1007.36
2022-10-05T07:10:31.699Z,1007.62
2022-10-05T07:11:31.655Z,1007.39
2022-10-05T07:12:31.614Z,1007.39
2022-10-05T07:13:32.553Z,1007.49
2022-10-05T07:14:31.638Z,1007.45
2022-10-05T07:15:31.444Z,1007.37
2022-10-05T07:16:31.487Z,1007.59
2022-10-05T07:17:31.687Z,1007.45
2022-10-05T07:18:31.399Z,1007.47
2022-10-05T07:19:31.426Z,1007.55
2022-10-05T07:20:31.428Z,1007.47
2022-10-05T07:21:31.413Z,1007.37
2022-10-05T07:22:34.082Z,1007.48
2022-10-05T07:23:31.405Z,1007.40
2022-10-05T07:24:31.357Z,1007.38
2022-10-05T07:25:31.339Z,1007.46
2022-10-05T07:26:31.418Z,1007.46
2022-10-05T07:27:31.400Z,1007.43
2022-10-05T07:28:31.464Z,1007.40
2022-10-05T07:29:31.277Z,1007.48
2022-10-05T07:30:31.333Z,1007.41
2022-10-05T07:31:31.259Z,1007.41
2022-10-05T07:32:31.286Z,1007.45
2022-10-05T07:33:31.261Z,1007.40
2022-10-05T07:34:31.311Z,1007.43
2022-10-05T07:35:31.212Z,1007.48
2022-10-05T07:36:32.093Z,1007.47
2022-10-05T07:37:31.318Z,1007.40
2022-10-05T07:38:31.228Z,1007.45
2022-10-05T07:39:55.429Z,1007.49
2022-10-05T07:40:32.172Z,1007.48
2022-10-05T07:41:31.161Z,1007.49
2022-10-05T07:42:31.262Z,1007.49
2022-10-05T07:43:45.194Z,1007.46
2022-10-05T07:44:32.264Z,1007.64
2022-10-05T07:45:31.330Z,1007.48
2022-10-05T07:46:31.620Z,1007.62
2022-10-05T07:47:31.605Z,1007.62
2022-10-05T07:48:31.542Z,1007.56
2022-10-05T07:49:31.164Z,1007.48
2022-10-05T07:50:31.116Z,1007.52
2022-10-05T07:51:31.233Z,1007.54
2022-10-05T07:52:34.508Z,1007.77
2022-10-05T07:53:30.983Z,1007.58
2022-10-05T07:54:31.029Z,1007.57
2022-10-05T07:55:31.021Z,1007.57
2022-10-05T07:56:31.053Z,1007.62
2022-10-05T07:57:31.204Z,1007.57
2022-10-05T07:58:30.944Z,1007.50
2022-10-05T07:59:31.244Z,1007.54
2022-10-05T08:00:30.956Z,1007.70
2022-10-05T08:01:30.979Z,1007.64
2022-10-05T08:02:31.044Z,1007.55
2022-10-05T08:03:31.242Z,1007.62
2022-10-05T08:04:31.848Z,1007.64
2022-10-05T08:05:30.963Z,1007.63
2022-10-05T08:06:31.061Z,1007.56
2022-10-05T08:07:31.287Z,1007.60
2022-10-05T08:08:32.997Z,1007.59
2022-10-05T08:09:31.894Z,1007.71
2022-10-05T08:10:31.477Z,1007.62
2022-10-05T08:11:31.039Z,1007.73
2022-10-05T08:12:30.937Z,1007.61
2022-10-05T08:13:31.321Z,1007.62
2022-10-05T08:14:30.962Z,1007.62
2022-10-05T08:15:31.831Z,1007.59
2022-10-05T08:16:32.896Z,1007.75
2022-10-05T08:17:31.541Z,1007.67
2022-10-05T08:18:30.957Z,1007.67
2022-10-05T08:19:31.131Z,1007.65
2022-10-05T08:20:30.942Z,1007.63
2022-10-05T08:21:32.215Z,1007.64
2022-10-05T08:22:32.651Z,1007.82
2022-10-05T08:23:30.849Z,1007.59
2022-10-05T08:24:30.762Z,1007.57
2022-10-05T08:25:31.797Z,1007.61
2022-10-05T08:26:30.830Z,1007.85
2022-10-05T08:27:32.390Z,1007.61
2022-10-05T08:28:35.296Z,1007.69
2022-10-05T08:29:30.789Z,1007.66
2022-10-05T08:30:32.020Z,1007.79
2022-10-05T08:31:30.652Z,1007.71
2022-10-05T08:32:30.738Z,1007.62
2022-10-05T08:33:30.628Z,1007.75
2022-10-05T08:34:30.620Z,1007.71
2022-10-05T08:35:31.230Z,1007.64
2022-10-05T08:36:30.988Z,1007.66
2022-10-05T08:37:30.633Z,1007.67
2022-10-05T08:38:30.674Z,1007.64
2022-10-05T08:39:31.342Z,1007.80
2022-10-05T08:40:31.156Z,1007.78
2022-10-05T08:41:31.156Z,1007.69
2022-10-05T08:42:32.478Z,1007.75
2022-10-05T08:43:35.015Z,1007.76
2022-10-05T08:44:30.581Z,1007.76
2022-10-05T08:45:31.137Z,1007.65
2022-10-05T08:46:30.789Z,1007.66
2022-10-05T08:47:31.063Z,1007.77
2022-10-05T08:48:30.585Z,1007.79
2022-10-05T08:49:35.040Z,1007.77
2022-10-05T08:50:30.849Z,1007.72
2022-10-05T08:51:31.118Z,1007.85
2022-10-05T08:52:30.586Z,1007.88
2022-10-05T08:53:30.859Z,1007.71
2022-10-05T08:54:30.709Z,1007.83
2022-10-05T08:55:32.087Z,1007.74
2022-10-05T08:56:30.625Z,1007.86
2022-10-05T08:57:30.606Z,1007.74
2022-10-05T08:58:31.020Z,1007.73
2022-10-05T08:59:31.017Z,1007.79
2022-10-05T09:00:30.443Z,1007.75
2022-10-05T09:01:30.513Z,1007.83
2022-10-05T09:02:31.277Z,1007.78
2022-10-05T09:03:34.335Z,1007.77
2022-10-05T09:04:30.456Z,1008.26
2022-10-05T09:05:30.404Z,1007.79
2022-10-05T09:06:30.703Z,1007.72
2022-10-05T09:07:31.763Z,1007.77
2022-10-05T09:08:30.352Z,1007.80
2022-10-05T09:09:30.435Z,1007.90
2022-10-05T09:10:32.154Z,1007.88
2022-10-05T09:11:30.789Z,1007.82
2022-10-05T09:12:39.858Z,1008.01
2022-10-05T09:13:30.137Z,1007.83
2022-10-05T09:14:32.608Z,1007.94
2022-10-05T09:15:30.154Z,1007.94
2022-10-05T09:16:30.136Z,1007.99
2022-10-05T09:17:30.101Z,1007.91
2022-10-05T09:18:30.198Z,1007.89
2022-10-05T09:19:30.204Z,1008.15
2022-10-05T09:20:30.246Z,1008.00
2022-10-05T09:21:30.226Z,1007.98
2022-10-05T09:22:30.175Z,1008.02
2022-10-05T09:23:30.078Z,1007.98
2022-10-05T09:24:30.195Z,1008.08
2022-10-05T09:25:30.040Z,1008.13
2022-10-05T09:26:30.092Z,1008.00
2022-10-05T09:27:29.987Z,1007.98
2022-10-05T09:28:30.111Z,1007.98
2022-10-05T09:29:30.049Z,1007.98
2022-10-05T09:30:29.975Z,1007.90
2022-10-05T09:31:30.010Z,1007.91
2022-10-05T09:32:29.953Z,1007.93
2022-10-05T09:33:29.988Z,1007.90
2022-10-05T09:34:29.934Z,1007.76
2022-10-05T09:35:29.952Z,1007.79
2022-10-05T09:36:30.053Z,1007.82
2022-10-05T09:37:29.913Z,1007.80
2022-10-05T09:38:29.894Z,1007.80
2022-10-05T09:39:29.870Z,1007.72
2022-10-05T09:40:30.060Z,1007.79
2022-10-05T09:41:29.879Z,1007.82
2022-10-05T09:42:29.888Z,1007.82
2022-10-05T09:43:29.920Z,1007.76
2022-10-05T09:44:29.821Z,1007.81
2022-10-05T09:45:29.822Z,1007.69
2022-10-05T09:46:29.951Z,1007.67
2022-10-05T09:47:29.835Z,1007.64
2022-10-05T09:48:29.800Z,1007.63
2022-10-05T09:49:29.758Z,1007.61
2022-10-05T09:50:29.782Z,1007.74
2022-10-05T09:51:29.765Z,1007.62
2022-10-05T09:52:29.855Z,1007.66
2022-10-05T09:53:29.722Z,1007.65
2022-10-05T09:54:29.731Z,1007.54
2022-10-05T09:55:29.774Z,1007.53
2022-10-05T09:56:29.752Z,1007.56
2022-10-05T09:57:29.684Z,1007.61
2022-10-05T09:58:29.668Z,1007.54
2022-10-05T09:59:29.658Z,1007.55
2022-10-05T10:00:29.704Z,1007.43
2022-10-05T10:01:33.546Z,1007.53
2022-10-05T10:02:29.691Z,1007.52
2022-10-05T10:03:29.686Z,1007.47
2022-10-05T10:04:29.578Z,1007.43
2022-10-05T10:05:29.694Z,1007.43
2022-10-05T10:06:29.581Z,1007.45
2022-10-05T10:07:29.581Z,1007.48
2022-10-05T10:08:29.555Z,1007.42
2022-10-05T10:09:29.543Z,1007.41
2022-10-05T10:10:29.519Z,1007.45
2022-10-05T10:11:29.546Z,1007.42
2022-10-05T10:12:29.506Z,1007.40
2022-10-05T10:13:29.499Z,1007.47
2022-10-05T10:14:29.581Z,1007.45
2022-10-05T10:15:29.656Z,1007.43
2022-10-05T10:16:29.466Z,1007.32
2022-10-05T10:17:29.432Z,1007.32
2022-10-05T10:18:29.440Z,1007.34
2022-10-05T10:19:29.445Z,1007.33
2022-10-05T10:20:29.451Z,1007.41
2022-10-05T10:21:29.444Z,1007.23
2022-10-05T10:22:29.424Z,1007.32
2022-10-05T10:23:29.484Z,1007.32
2022-10-05T10:24:29.369Z,1007.29
2022-10-05T10:25:29.426Z,1007.25
2022-10-05T10:26:29.392Z,1007.34
2022-10-05T10:27:29.449Z,1007.21
2022-10-05T10:28:29.474Z,1007.37
2022-10-05T10:29:29.313Z,1007.27
2022-10-05T10:30:31.054Z,1007.26
2022-10-05T10:31:29.417Z,1007.34
2022-10-05T10:32:29.290Z,1007.29
2022-10-05T10:33:29.265Z,1007.25
2022-10-05T10:34:29.398Z,1007.28
2022-10-05T10:36:29.248Z,1007.29
2022-10-05T10:37:29.267Z,1007.38
2022-10-05T10:38:29.226Z,1007.20
2022-10-05T10:39:29.201Z,1007.21
2022-10-05T10:40:29.188Z,1007.24
2022-10-05T10:41:29.189Z,1007.13
2022-10-05T10:42:29.190Z,1007.23
2022-10-05T10:43:29.161Z,1007.13
2022-10-05T10:44:29.156Z,1007.25
2022-10-05T10:45:29.204Z,1007.09
2022-10-05T10:46:29.194Z,1007.15
2022-10-05T10:47:29.166Z,1007.15
2022-10-05T10:48:29.156Z,1007.11
2022-10-05T10:49:29.144Z,1007.14
2022-10-05T10:50:29.175Z,1007.04
2022-10-05T10:51:29.089Z,1007.10
2022-10-05T10:52:29.157Z,1007.16
2022-10-05T10:53:29.078Z,1007.23
2022-10-05T10:54:29.099Z,1007.22
2022-10-05T10:55:29.031Z,1007.12
2022-10-05T10:56:29.061Z,1007.11
2022-10-05T10:57:29.036Z,1007.07
2022-10-05T10:59:30.853Z,1006.96
2022-10-05T11:00:29.020Z,1007.10
2022-10-05T11:01:29.075Z,1007.02
2022-10-05T11:02:29.058Z,1006.99
2022-10-05T11:03:29.942Z,1007.00
2022-10-05T11:04:29.045Z,1007.00
2022-10-05T11:05:28.984Z,1007.02
2022-10-05T11:06:29.052Z,1006.94
2022-10-05T11:07:29.043Z,1007.03
2022-10-05T11:08:28.924Z,1006.93
2022-10-05T11:09:28.899Z,1007.01
2022-10-05T11:10:28.892Z,1006.91
2022-10-05T11:11:29.236Z,1006.99
2022-10-05T11:12:33.551Z,1006.94
2022-10-05T11:13:29.893Z,1006.94
2022-10-05T11:14:29.041Z,1006.97
2022-10-05T11:15:28.868Z,1006.95
2022-10-05T11:16:28.827Z,1006.85
2022-10-05T11:17:28.905Z,1006.85
2022-10-05T11:18:28.856Z,1006.89
2022-10-05T11:19:39.881Z,1006.91
2022-10-05T11:20:29.835Z,1006.97
2022-10-05T11:21:28.804Z,1006.87
2022-10-05T11:22:28.785Z,1006.85
2022-10-05T11:23:28.811Z,1006.82
2022-10-05T11:24:28.801Z,1006.78
2022-10-05T11:25:28.941Z,1006.86
2022-10-05T11:26:28.744Z,1006.79
2022-10-05T11:27:28.746Z,1006.92
2022-10-05T11:28:28.803Z,1006.74
2022-10-05T11:29:29.841Z,1006.82
2022-10-05T11:30:28.763Z,1006.78
2022-10-05T11:31:28.707Z,1006.74
2022-10-05T11:32:28.731Z,1006.77
2022-10-05T11:33:28.676Z,1006.80
2022-10-05T11:34:28.622Z,1006.79
2022-10-05T11:35:28.608Z,1006.68
2022-10-05T11:36:28.650Z,1006.81
2022-10-05T11:37:28.630Z,1006.67
2022-10-05T11:38:28.954Z,1006.74
2022-10-05T11:39:28.625Z,1006.68
2022-10-05T11:40:28.623Z,1006.62
2022-10-05T11:41:29.054Z,1006.64
2022-10-05T11:42:28.566Z,1006.65
2022-10-05T11:43:28.558Z,1006.61
2022-10-05T11:44:28.549Z,1006.75
2022-10-05T11:45:28.559Z,1006.56
2022-10-05T11:46:28.608Z,1006.62
2022-10-05T11:47:28.466Z,1006.66
2022-10-05T11:48:28.468Z,1006.60
2022-10-05T11:49:28.495Z,1006.53
2022-10-05T11:50:28.511Z,1006.57
2022-10-05T11:51:29.000Z,1006.57
2022-10-05T11:52:28.669Z,1006.54
2022-10-05T11:53:28.438Z,1006.45
2022-10-05T11:54:28.420Z,1006.40
2022-10-05T11:55:28.430Z,1006.39
2022-10-05T11:56:31.357Z,1006.39
2022-10-05T11:57:28.427Z,1006.39
2022-10-05T11:58:28.465Z,1006.34
2022-10-05T11:59:28.397Z,1006.28
2022-10-05T12:00:28.345Z,1006.33
2022-10-05T12:01:28.372Z,1006.34
2022-10-05T12:02:28.472Z,1006.35
2022-10-05T12:03:28.479Z,1006.30
2022-10-05T12:04:28.378Z,1006.27
2022-10-05T12:05:28.271Z,1006.13
2022-10-05T12:06:28.297Z,1006.14
2022-10-05T12:07:28.299Z,1006.22
2022-10-05T12:08:28.300Z,1006.13